createdAt,value
2023-04-25T00:00:17.801Z,66.84
2023-04-25T00:02:44.843Z,66.83
2023-04-25T00:05:13.252Z,67.34
2023-04-25T00:07:40.403Z,67.23
2023-04-25T00:10:08.634Z,67.49
2023-04-25T00:12:36.794Z,66.80
2023-04-25T00:15:04.350Z,67.27
2023-04-25T00:17:32.210Z,67.34
2023-04-25T00:19:59.330Z,67.21
2023-04-25T00:22:26.297Z,67.65
2023-04-25T00:24:54.406Z,67.06
2023-04-25T00:27:21.452Z,67.50
2023-04-25T00:29:48.528Z,67.79
2023-04-25T00:32:15.506Z,67.51
2023-04-25T00:34:42.521Z,67.21
2023-04-25T00:37:09.468Z,67.39
2023-04-25T00:39:36.430Z,67.69
2023-04-25T00:42:04.133Z,67.67
2023-04-25T00:44:33.072Z,67.47
2023-04-25T00:47:02.620Z,67.35
2023-04-25T00:49:29.571Z,67.51
2023-04-25T00:51:57.399Z,67.33
2023-04-25T00:54:24.720Z,67.34
2023-04-25T00:56:52.075Z,67.88
2023-04-25T00:59:21.369Z,67.60
2023-04-25T01:01:48.610Z,67.63
2023-04-25T01:04:15.900Z,67.05
2023-04-25T01:06:43.077Z,67.28
2023-04-25T01:09:11.049Z,67.51
2023-04-25T01:11:38.067Z,67.66
2023-04-25T01:14:05.427Z,67.65
2023-04-25T01:16:34.031Z,67.82
2023-04-25T01:19:01.259Z,67.85
2023-04-25T01:21:30.712Z,67.40
2023-04-25T01:23:58.519Z,67.59
2023-04-25T01:26:26.138Z,67.59
2023-04-25T01:28:53.357Z,68.22
2023-04-25T01:31:21.088Z,67.37
2023-04-25T01:33:49.509Z,67.79
2023-04-25T01:36:17.278Z,67.45
2023-04-25T01:38:45.012Z,67.56
2023-04-25T01:41:12.219Z,67.51
2023-04-25T01:43:39.488Z,67.61
2023-04-25T01:46:07.122Z,67.43
2023-04-25T01:48:34.159Z,67.25
2023-04-25T01:51:01.171Z,67.55
2023-04-25T01:53:29.474Z,67.72
2023-04-25T01:55:56.934Z,67.27
2023-04-25T01:58:27.236Z,67.52
2023-04-25T02:01:08.456Z,67.60
2023-04-25T02:03:42.885Z,67.88
2023-04-25T02:06:18.561Z,67.56
2023-04-25T02:08:47.798Z,67.35
2023-04-25T02:11:16.776Z,68.07
2023-04-25T02:13:54.559Z,68.51
2023-04-25T02:16:41.988Z,68.21
2023-04-25T02:19:09.014Z,68.47
2023-04-25T02:21:36.692Z,67.86
2023-04-25T02:24:05.537Z,67.88
2023-04-25T02:26:32.506Z,67.59
2023-04-25T02:28:59.629Z,68.16
2023-04-25T02:31:27.018Z,67.97
2023-04-25T02:33:54.088Z,67.99
2023-04-25T02:36:21.062Z,67.90
2023-04-25T02:38:49.409Z,67.65
2023-04-25T02:41:16.386Z,67.91
2023-04-25T02:43:43.296Z,68.05
2023-04-25T02:46:10.659Z,68.25
2023-04-25T02:48:37.660Z,67.96
2023-04-25T02:51:04.672Z,68.02
2023-04-25T02:53:31.783Z,67.88
2023-04-25T02:56:00.203Z,68.55
2023-04-25T02:58:27.308Z,68.45
2023-04-25T03:00:55.734Z,68.25
2023-04-25T03:03:23.256Z,68.11
2023-04-25T03:05:52.225Z,68.15
2023-04-25T03:08:23.923Z,68.03
2023-04-25T03:10:52.335Z,68.22
2023-04-25T03:13:19.558Z,67.76
2023-04-25T03:15:47.039Z,68.34
2023-04-25T03:18:14.107Z,68.11
2023-04-25T03:20:42.706Z,68.63
2023-04-25T03:23:09.959Z,68.91
2023-04-25T03:25:37.668Z,68.25
2023-04-25T03:28:05.268Z,68.77
2023-04-25T03:30:32.706Z,68.34
2023-04-25T03:33:00.347Z,68.58
2023-04-25T03:35:27.475Z,68.56
2023-04-25T03:37:55.270Z,68.43
2023-04-25T03:40:27.548Z,68.44
2023-04-25T03:43:13.152Z,68.42
2023-04-25T03:45:44.832Z,68.33
2023-04-25T03:48:13.119Z,68.63
2023-04-25T03:50:40.218Z,68.82
2023-04-25T03:53:07.467Z,68.59
2023-04-25T03:55:54.396Z,68.56
2023-04-25T03:58:21.387Z,68.45
2023-04-25T04:00:48.721Z,68.63
2023-04-25T04:03:15.894Z,68.64
2023-04-25T04:05:43.050Z,68.58
2023-04-25T04:08:10.041Z,68.51
2023-04-25T04:10:38.696Z,68.78
2023-04-25T04:13:05.796Z,68.54
2023-04-25T04:15:33.938Z,68.84
2023-04-25T04:18:03.715Z,68.61
2023-04-25T04:20:31.517Z,68.68
2023-04-25T04:22:58.590Z,69.24
2023-04-25T04:25:27.127Z,68.55
2023-04-25T04:28:05.941Z,68.45
2023-04-25T04:30:56.476Z,68.61
2023-04-25T04:33:24.468Z,68.84
2023-04-25T04:35:57.384Z,68.59
2023-04-25T04:38:24.874Z,68.69
2023-04-25T04:40:53.426Z,68.95
2023-04-25T04:43:26.031Z,68.74
2023-04-25T04:46:25.589Z,68.71
2023-04-25T04:49:14.595Z,68.96
2023-04-25T04:51:56.832Z,69.21
2023-04-25T04:54:38.170Z,68.88
2023-04-25T04:57:25.707Z,69.26
2023-04-25T05:00:19.140Z,69.26
2023-04-25T05:03:04.696Z,69.84
2023-04-25T05:06:01.080Z,69.14
2023-04-25T05:08:27.984Z,69.34
2023-04-25T05:11:09.188Z,67.63
2023-04-25T05:13:59.241Z,69.31
2023-04-25T05:16:46.513Z,69.25
2023-04-25T05:19:33.223Z,69.40
2023-04-25T05:22:16.368Z,69.36
2023-04-25T05:25:10.668Z,69.51
2023-04-25T05:27:56.083Z,69.47
2023-04-25T05:30:36.610Z,69.67
2023-04-25T05:33:08.145Z,69.42
2023-04-25T05:35:35.620Z,69.74
2023-04-25T05:38:02.631Z,69.87
2023-04-25T05:40:49.832Z,69.65
2023-04-25T05:43:36.044Z,69.61
2023-04-25T05:46:18.087Z,70.11
2023-04-25T05:49:15.986Z,69.78
2023-04-25T05:51:57.946Z,69.93
2023-04-25T05:54:38.499Z,69.98
2023-04-25T05:57:05.549Z,70.28
2023-04-25T05:59:32.998Z,70.39
2023-04-25T06:02:01.753Z,69.97
2023-04-25T06:04:29.712Z,70.04
2023-04-25T06:06:56.782Z,70.33
2023-04-25T06:09:24.295Z,70.08
2023-04-25T06:11:54.110Z,70.32
2023-04-25T06:14:27.696Z,70.28
2023-04-25T06:16:56.169Z,70.55
2023-04-25T06:19:23.148Z,70.23
2023-04-25T06:21:50.105Z,70.50
2023-04-25T06:24:17.318Z,70.08
2023-04-25T06:26:45.327Z,70.46
2023-04-25T06:29:12.606Z,70.51
2023-04-25T06:31:39.603Z,70.60
2023-04-25T06:34:06.709Z,70.47
2023-04-25T06:36:37.814Z,68.90
2023-04-25T06:39:11.742Z,70.02
2023-04-25T06:41:38.699Z,70.54
2023-04-25T06:44:08.204Z,70.53
2023-04-25T06:46:40.410Z,70.38
2023-04-25T06:49:07.591Z,70.81
2023-04-25T06:51:34.645Z,70.81
2023-04-25T06:54:01.753Z,71.03
2023-04-25T06:56:35.881Z,70.94
2023-04-25T06:59:08.560Z,70.78
2023-04-25T07:01:38.002Z,71.11
2023-04-25T07:04:10.366Z,71.17
2023-04-25T07:06:43.675Z,71.40
2023-04-25T07:09:11.722Z,71.75
2023-04-25T07:11:39.261Z,71.47
2023-04-25T07:14:06.201Z,71.59
2023-04-25T07:16:34.461Z,71.66
2023-04-25T07:19:02.828Z,71.41
2023-04-25T07:21:31.883Z,71.50
2023-04-25T07:24:01.757Z,71.39
2023-04-25T07:26:34.383Z,71.86
2023-04-25T07:29:31.289Z,71.68
2023-04-25T07:32:00.122Z,71.74
2023-04-25T07:34:27.139Z,72.19
2023-04-25T07:36:54.705Z,71.99
2023-04-25T07:39:24.057Z,71.97
2023-04-25T07:41:53.742Z,72.04
2023-04-25T07:44:25.505Z,71.80
2023-04-25T07:46:52.703Z,72.08
2023-04-25T07:49:19.923Z,71.98
2023-04-25T07:51:46.996Z,71.84
2023-04-25T07:54:18.244Z,71.71
2023-04-25T07:56:53.277Z,72.51
2023-04-25T07:59:23.931Z,72.42
2023-04-25T08:01:51.393Z,71.85
2023-04-25T08:04:20.278Z,71.96
2023-04-25T08:06:53.782Z,71.89
2023-04-25T08:09:25.106Z,72.05
2023-04-25T08:11:53.383Z,72.04
2023-04-25T08:14:26.199Z,72.06
2023-04-25T08:16:53.532Z,72.13
2023-04-25T08:19:21.304Z,72.41
2023-04-25T08:21:48.723Z,72.49
2023-04-25T08:24:21.051Z,72.53
2023-04-25T08:26:48.019Z,72.88
2023-04-25T08:29:20.896Z,72.67
2023-04-25T08:31:48.935Z,72.87
2023-04-25T08:34:16.237Z,74.16
2023-04-25T08:36:48.883Z,73.30
2023-04-25T08:39:23.928Z,73.04
2023-04-25T08:42:16.767Z,73.55
2023-04-25T08:44:48.340Z,73.67
2023-04-25T08:47:15.360Z,72.13
2023-04-25T08:49:50.475Z,73.55
2023-04-25T08:52:25.265Z,74.01
2023-04-25T08:54:55.233Z,73.91
2023-04-25T08:57:22.754Z,73.99
2023-04-25T08:59:50.818Z,74.64
2023-04-25T09:02:20.796Z,74.21
2023-04-25T09:04:51.251Z,74.23
2023-04-25T09:07:22.043Z,74.55
2023-04-25T09:09:49.063Z,74.67
2023-04-25T09:12:20.906Z,74.65
2023-04-25T09:15:08.522Z,73.81
2023-04-25T09:18:00.396Z,74.29
2023-04-25T09:20:56.362Z,74.09
2023-04-25T09:23:28.494Z,74.28
2023-04-25T09:25:55.600Z,74.65
2023-04-25T09:28:30.077Z,74.56
2023-04-25T09:30:59.226Z,74.70
2023-04-25T09:33:35.839Z,74.67
2023-04-25T09:36:14.579Z,74.67
2023-04-25T09:39:17.251Z,74.63
2023-04-25T09:41:55.658Z,74.99
2023-04-25T09:44:26.094Z,75.01
2023-04-25T09:46:54.671Z,75.69
2023-04-25T09:49:27.188Z,75.60
2023-04-25T09:52:26.028Z,75.34
2023-04-25T09:55:13.586Z,75.37
2023-04-25T09:57:41.790Z,75.03
2023-04-25T10:00:13.137Z,75.10
2023-04-25T10:02:47.709Z,74.88
2023-04-25T10:05:33.886Z,74.77
2023-04-25T10:08:05.400Z,74.50
2023-04-25T10:10:37.078Z,74.80
2023-04-25T10:13:06.538Z,74.84
2023-04-25T10:15:39.676Z,74.79
2023-04-25T10:18:08.203Z,74.98
2023-04-25T10:20:35.294Z,75.20
2023-04-25T10:23:16.279Z,74.85
2023-04-25T10:25:43.589Z,74.98
2023-04-25T10:28:10.761Z,75.28
2023-04-25T10:30:37.917Z,74.78
2023-04-25T10:33:19.498Z,75.12
2023-04-25T10:35:46.907Z,74.76
2023-04-25T10:38:15.810Z,74.63
2023-04-25T10:40:42.810Z,75.04
2023-04-25T10:43:41.289Z,75.21
2023-04-25T10:46:38.444Z,75.09
2023-04-25T10:49:05.477Z,74.34
2023-04-25T10:51:47.210Z,74.28
2023-04-25T10:54:22.825Z,73.83
2023-04-25T10:56:50.519Z,74.01
2023-04-25T10:59:19.723Z,73.25
2023-04-25T11:01:53.979Z,73.22
2023-04-25T11:04:34.851Z,73.09
2023-04-25T11:07:10.852Z,73.15
2023-04-25T11:09:41.787Z,73.19
2023-04-25T11:12:09.685Z,74.20
2023-04-25T11:14:37.438Z,73.19
2023-04-25T11:17:04.442Z,73.43
2023-04-25T11:19:31.650Z,73.35
2023-04-25T11:22:02.935Z,73.46
2023-04-25T11:24:32.022Z,73.33
2023-04-25T11:27:00.350Z,72.92
2023-04-25T11:29:32.153Z,72.48
2023-04-25T11:31:59.589Z,72.39
2023-04-25T11:34:27.199Z,72.52
2023-04-25T11:36:54.688Z,72.49
2023-04-25T11:39:22.209Z,72.54
2023-04-25T11:41:49.192Z,72.89
2023-04-25T11:44:20.625Z,73.19
2023-04-25T11:46:48.349Z,72.88
2023-04-25T11:49:16.479Z,73.09
2023-04-25T11:51:45.578Z,73.06
2023-04-25T11:54:13.808Z,73.09
2023-04-25T11:56:45.721Z,73.51
2023-04-25T11:59:14.069Z,73.53
2023-04-25T12:01:50.557Z,73.77
2023-04-25T12:04:22.899Z,73.73
2023-04-25T12:06:53.197Z,74.43
2023-04-25T12:09:31.106Z,74.28
2023-04-25T12:12:00.223Z,74.45
2023-04-25T12:14:29.954Z,74.00
2023-04-25T12:16:59.118Z,73.72
2023-04-25T12:19:26.943Z,73.37
2023-04-25T12:21:58.585Z,72.94
2023-04-25T12:24:28.752Z,73.70
2023-04-25T12:27:10.828Z,73.34
2023-04-25T12:29:49.236Z,73.31
2023-04-25T12:32:17.839Z,72.87
2023-04-25T12:34:45.922Z,72.31
2023-04-25T12:37:13.491Z,72.54
2023-04-25T12:39:40.517Z,72.39
2023-04-25T12:42:09.673Z,72.53
2023-04-25T12:44:37.252Z,72.35
2023-04-25T12:47:05.197Z,72.31
2023-04-25T12:49:32.980Z,72.29
2023-04-25T12:51:59.993Z,72.11
2023-04-25T12:54:27.158Z,71.75
2023-04-25T12:56:54.339Z,72.13
2023-04-25T12:59:22.133Z,72.25
2023-04-25T13:01:49.252Z,71.82
2023-04-25T13:04:16.953Z,71.81
2023-04-25T13:06:44.320Z,71.68
2023-04-25T13:09:13.101Z,71.78
2023-04-25T13:11:41.409Z,72.35
2023-04-25T13:14:08.776Z,72.66
2023-04-25T13:16:35.901Z,72.01
2023-04-25T13:19:03.045Z,72.60
2023-04-25T13:21:33.437Z,72.84
2023-04-25T13:24:00.557Z,73.29
2023-04-25T13:26:27.657Z,72.41
2023-04-25T13:28:54.631Z,71.90
2023-04-25T13:31:21.885Z,72.15
2023-04-25T13:33:49.019Z,71.97
2023-04-25T13:36:16.119Z,71.69
2023-04-25T13:38:44.872Z,71.25
2023-04-25T13:41:16.530Z,71.25
2023-04-25T13:43:43.511Z,70.64
2023-04-25T13:46:24.850Z,70.72
2023-04-25T13:49:06.201Z,71.66
2023-04-25T13:51:37.224Z,72.45
2023-04-25T13:54:04.360Z,73.14
2023-04-25T13:56:31.387Z,73.63
2023-04-25T13:58:58.325Z,73.01
2023-04-25T14:01:25.384Z,73.78
2023-04-25T14:03:52.627Z,73.67
2023-04-25T14:06:23.758Z,72.66
2023-04-25T14:08:53.463Z,72.26
2023-04-25T14:11:20.374Z,70.93
2023-04-25T14:13:48.621Z,71.02
2023-04-25T14:16:16.998Z,70.66
2023-04-25T14:18:43.977Z,69.84
2023-04-25T14:21:10.952Z,70.63
2023-04-25T14:23:37.900Z,70.09
2023-04-25T14:26:05.088Z,70.32
2023-04-25T14:28:32.467Z,70.09
2023-04-25T14:30:59.421Z,70.04
2023-04-25T14:33:26.487Z,71.05
2023-04-25T14:35:53.892Z,71.30
2023-04-25T14:38:24.079Z,72.11
2023-04-25T14:40:51.460Z,72.48
2023-04-25T14:43:18.653Z,72.12
2023-04-25T14:45:46.292Z,71.06
2023-04-25T14:48:13.604Z,71.35
2023-04-25T14:50:40.819Z,70.34
2023-04-25T14:53:07.809Z,70.73
2023-04-25T14:55:34.765Z,69.88
2023-04-25T14:58:01.987Z,70.13
2023-04-25T15:00:29.207Z,69.87
2023-04-25T15:02:57.177Z,69.45
2023-04-25T15:05:24.530Z,70.02
2023-04-25T15:07:51.518Z,70.25
2023-04-25T15:10:19.525Z,68.67
2023-04-25T15:12:47.818Z,68.88
2023-04-25T15:15:22.754Z,69.14
2023-04-25T15:17:53.079Z,69.10
2023-04-25T15:20:20.161Z,68.75
2023-04-25T15:22:49.565Z,67.36
2023-04-25T15:25:20.837Z,68.26
2023-04-25T15:27:49.379Z,68.41
2023-04-25T15:30:18.214Z,67.72
2023-04-25T15:32:46.795Z,68.69
2023-04-25T15:35:15.800Z,68.51
2023-04-25T15:37:43.057Z,68.30
2023-04-25T15:40:14.676Z,67.53
2023-04-25T15:42:48.176Z,68.02
2023-04-25T15:45:17.721Z,68.15
2023-04-25T15:47:45.520Z,68.25
2023-04-25T15:50:14.835Z,68.11
2023-04-25T15:52:42.058Z,67.88
2023-04-25T15:55:10.434Z,68.06
2023-04-25T15:57:37.448Z,68.10
2023-04-25T16:00:11.098Z,67.79
2023-04-25T16:02:40.983Z,67.43
2023-04-25T16:05:09.119Z,67.68
2023-04-25T16:07:36.739Z,66.87
2023-04-25T16:10:04.292Z,66.77
2023-04-25T16:12:31.797Z,66.94
2023-04-25T16:14:58.768Z,67.48
2023-04-25T16:17:27.975Z,66.99
2023-04-25T16:19:55.233Z,67.45
2023-04-25T16:22:22.406Z,67.45
2023-04-25T16:24:49.366Z,66.99
2023-04-25T16:27:16.405Z,67.11
2023-04-25T16:29:43.356Z,67.31
2023-04-25T16:32:10.891Z,67.54
2023-04-25T16:34:37.811Z,66.85
2023-04-25T16:37:04.750Z,67.15
2023-04-25T16:39:31.658Z,66.72
2023-04-25T16:41:58.554Z,67.32
2023-04-25T16:44:25.536Z,66.95
2023-04-25T16:46:52.488Z,66.32
2023-04-25T16:49:19.443Z,66.59
2023-04-25T16:51:46.994Z,66.52
2023-04-25T16:54:13.979Z,66.32
2023-04-25T16:56:41.655Z,66.46
2023-04-25T16:59:08.614Z,66.27
2023-04-25T17:01:36.233Z,66.40
2023-04-25T17:04:03.458Z,66.70
2023-04-25T17:06:30.560Z,66.26
2023-04-25T17:08:57.509Z,66.17
2023-04-25T17:11:24.520Z,66.28
2023-04-25T17:13:51.541Z,66.63
2023-04-25T17:16:24.630Z,66.27
2023-04-25T17:18:52.417Z,66.60
2023-04-25T17:21:20.379Z,66.11
2023-04-25T17:23:47.457Z,66.30
2023-04-25T17:26:15.390Z,66.36
2023-04-25T17:28:44.941Z,66.32
2023-04-25T17:31:12.221Z,66.36
2023-04-25T17:33:39.334Z,66.38
2023-04-25T17:36:07.078Z,66.00
2023-04-25T17:38:35.581Z,66.46
2023-04-25T17:41:02.818Z,66.33
2023-04-25T17:43:31.380Z,66.52
2023-04-25T17:45:58.682Z,66.39
2023-04-25T17:48:26.714Z,66.03
2023-04-25T17:50:53.662Z,66.33
2023-04-25T17:53:20.641Z,66.38
2023-04-25T17:55:50.251Z,66.09
2023-04-25T17:58:17.771Z,66.38
2023-04-25T18:00:44.897Z,66.14
2023-04-25T18:03:11.999Z,66.48
2023-04-25T18:05:39.127Z,65.97
2023-04-25T18:08:06.763Z,65.95
2023-04-25T18:10:34.421Z,66.15
2023-04-25T18:13:01.752Z,66.57
2023-04-25T18:15:28.838Z,66.52
2023-04-25T18:17:57.763Z,66.89
2023-04-25T18:20:24.874Z,66.54
2023-04-25T18:22:52.078Z,66.59
2023-04-25T18:25:19.123Z,66.89
2023-04-25T18:27:46.218Z,66.56
2023-04-25T18:30:13.877Z,66.32
2023-04-25T18:32:40.881Z,67.06
2023-04-25T18:35:10.109Z,66.76
2023-04-25T18:37:37.326Z,66.65
2023-04-25T18:40:07.015Z,66.54
2023-04-25T18:42:34.045Z,66.61
2023-04-25T18:45:01.133Z,66.68
2023-04-25T18:47:28.057Z,67.17
2023-04-25T18:49:55.006Z,66.83
2023-04-25T18:52:22.742Z,66.92
2023-04-25T18:54:49.852Z,66.78
2023-04-25T18:57:17.731Z,66.82
2023-04-25T18:59:46.131Z,67.26
2023-04-25T19:02:15.941Z,67.28
2023-04-25T19:04:43.568Z,66.84
2023-04-25T19:07:10.705Z,67.26
2023-04-25T19:09:37.661Z,68.10
2023-04-25T19:12:04.970Z,67.15
2023-04-25T19:14:33.421Z,67.42
2023-04-25T19:17:00.826Z,67.53
2023-04-25T19:19:28.074Z,67.08
2023-04-25T19:21:55.164Z,67.00
2023-04-25T19:24:22.151Z,67.37
2023-04-25T19:26:49.285Z,67.36
2023-04-25T19:29:16.763Z,67.20
2023-04-25T19:31:45.457Z,66.94
2023-04-25T19:34:13.098Z,67.62
2023-04-25T19:36:42.200Z,67.63
2023-04-25T19:39:09.734Z,67.08
2023-04-25T19:41:38.656Z,67.33
2023-04-25T19:44:08.384Z,67.24
2023-04-25T19:46:36.765Z,67.13
2023-04-25T19:49:08.367Z,66.81
2023-04-25T19:51:36.218Z,67.49
2023-04-25T19:54:03.402Z,66.99
2023-04-25T19:56:30.371Z,68.54
2023-04-25T19:59:00.176Z,67.44
2023-04-25T20:01:27.333Z,68.71
2023-04-25T20:03:54.655Z,67.67
2023-04-25T20:06:22.045Z,68.36
2023-04-25T20:08:53.397Z,68.03
2023-04-25T20:11:21.474Z,68.04
2023-04-25T20:13:48.531Z,67.54
2023-04-25T20:16:20.285Z,68.17
2023-04-25T20:18:48.445Z,67.76
2023-04-25T20:21:17.898Z,68.31
2023-04-25T20:23:45.466Z,68.57
2023-04-25T20:26:12.827Z,67.84
2023-04-25T20:28:39.911Z,67.94
2023-04-25T20:31:06.976Z,68.02
2023-04-25T20:33:37.561Z,68.29
2023-04-25T20:36:05.261Z,67.70
2023-04-25T20:38:32.552Z,67.58
2023-04-25T20:40:59.582Z,67.54
2023-04-25T20:43:26.823Z,68.10
2023-04-25T20:45:54.711Z,68.81
2023-04-25T20:48:22.062Z,68.13
2023-04-25T20:50:49.080Z,68.21
2023-04-25T20:53:16.674Z,68.05
2023-04-25T20:55:44.145Z,67.86
2023-04-25T20:58:11.179Z,67.93
2023-04-25T21:00:38.928Z,67.96
2023-04-25T21:03:07.135Z,67.55
2023-04-25T21:05:34.344Z,67.70
2023-04-25T21:08:01.305Z,67.48
2023-04-25T21:10:28.255Z,67.57
2023-04-25T21:12:56.626Z,67.59
2023-04-25T21:15:24.632Z,67.88
2023-04-25T21:17:52.327Z,67.60
2023-04-25T21:20:21.492Z,67.37
2023-04-25T21:22:53.002Z,67.45
2023-04-25T21:25:30.735Z,67.27
2023-04-25T21:27:59.356Z,67.19
2023-04-25T21:30:26.938Z,67.52
2023-04-25T21:32:54.087Z,67.73
2023-04-25T21:35:22.707Z,67.45
2023-04-25T21:37:51.220Z,67.42
2023-04-25T21:40:19.431Z,67.71
2023-04-25T21:42:51.360Z,67.21
2023-04-25T21:45:19.727Z,67.24
2023-04-25T21:47:47.704Z,67.11
2023-04-25T21:50:15.282Z,67.47
2023-04-25T21:52:42.402Z,67.19
2023-04-25T21:55:11.442Z,66.92
2023-04-25T21:57:38.420Z,67.40
2023-04-25T22:00:20.010Z,67.42
2023-04-25T22:02:48.303Z,67.00
2023-04-25T22:05:16.071Z,67.26
2023-04-25T22:07:43.117Z,67.33
2023-04-25T22:10:10.725Z,67.21
2023-04-25T22:12:37.666Z,67.50
2023-04-25T22:15:09.228Z,67.16
2023-04-25T22:17:36.244Z,67.36
2023-04-25T22:20:09.611Z,67.09
2023-04-25T22:22:36.603Z,67.20
2023-04-25T22:25:03.756Z,67.42
2023-04-25T22:27:30.710Z,67.40
2023-04-25T22:29:57.638Z,67.25
2023-04-25T22:32:25.586Z,66.99
2023-04-25T22:34:52.603Z,67.48
2023-04-25T22:37:19.616Z,67.61
2023-04-25T22:39:46.577Z,67.35
2023-04-25T22:42:13.509Z,67.31
2023-04-25T22:44:40.391Z,67.12
2023-04-25T22:47:08.052Z,67.40
2023-04-25T22:49:35.340Z,66.99
2023-04-25T22:52:04.109Z,67.37
2023-04-25T22:54:31.020Z,67.06
2023-04-25T22:56:57.957Z,67.46
2023-04-25T22:59:24.993Z,67.21
2023-04-25T23:01:52.364Z,67.41
2023-04-25T23:04:19.759Z,67.45
2023-04-25T23:06:46.998Z,67.44
2023-04-25T23:09:14.092Z,67.27
2023-04-25T23:11:43.874Z,67.04
2023-04-25T23:14:10.826Z,67.09
2023-04-25T23:16:37.884Z,67.38
2023-04-25T23:19:04.871Z,67.17
2023-04-25T23:21:31.989Z,67.33
2023-04-25T23:23:58.931Z,67.19
2023-04-25T23:26:26.239Z,67.15
2023-04-25T23:28:53.548Z,67.10
2023-04-25T23:31:20.900Z,67.21
2023-04-25T23:33:47.870Z,66.98
2023-04-25T23:36:21.890Z,67.15
2023-04-25T23:38:50.303Z,67.30
2023-04-25T23:41:18.045Z,67.17
2023-04-25T23:43:44.988Z,67.14
2023-04-25T23:46:12.445Z,67.39
2023-04-25T23:48:39.504Z,67.01
2023-04-25T23:51:06.716Z,67.05
2023-04-25T23:53:33.630Z,66.92
2023-04-25T23:56:00.711Z,67.04
2023-04-25T23:58:27.621Z,67.08
